createdAt,value
2018-07-04T00:00:33.744Z,0
2018-07-04T00:01:43.959Z,0
2018-07-04T00:02:54.205Z,0
2018-07-04T00:04:04.369Z,0
2018-07-04T00:05:14.610Z,0
2018-07-04T00:06:24.767Z,0
2018-07-04T00:07:35.000Z,0
2018-07-04T00:08:45.269Z,0
2018-07-04T00:09:55.646Z,0
2018-07-04T00:11:05.812Z,0
2018-07-04T00:12:16.110Z,0
2018-07-04T00:13:26.500Z,0
2018-07-04T00:14:36.691Z,0
2018-07-04T00:15:46.847Z,0
2018-07-04T00:16:56.977Z,0
2018-07-04T00:18:07.126Z,0
2018-07-04T00:19:17.390Z,0
2018-07-04T00:20:27.746Z,0
2018-07-04T00:21:37.391Z,0
2018-07-04T00:22:47.267Z,0
2018-07-04T00:23:57.190Z,0
2018-07-04T00:25:07.508Z,0
2018-07-04T00:26:17.684Z,0
2018-07-04T00:27:27.567Z,0
2018-07-04T00:28:37.724Z,0
2018-07-04T00:29:47.867Z,0
2018-07-04T00:30:58.025Z,0
2018-07-04T00:32:08.187Z,0
2018-07-04T00:33:18.075Z,0
2018-07-04T00:34:28.305Z,0
2018-07-04T00:35:38.576Z,0
2018-07-04T00:36:48.717Z,0
2018-07-04T00:37:58.873Z,0
2018-07-04T00:39:08.796Z,0
2018-07-04T00:40:18.907Z,0
2018-07-04T00:41:29.072Z,0
2018-07-04T00:42:39.405Z,0
2018-07-04T00:43:49.528Z,0
2018-07-04T00:44:59.699Z,0
2018-07-04T00:46:09.941Z,0
2018-07-04T00:47:20.263Z,0
2018-07-04T00:48:30.135Z,0
2018-07-04T00:49:40.256Z,0
2018-07-04T00:50:50.423Z,0
2018-07-04T00:52:00.624Z,0
2018-07-04T00:53:10.780Z,0
2018-07-04T00:54:21.040Z,0
2018-07-04T00:55:31.207Z,0
2018-07-04T00:56:41.413Z,0
2018-07-04T00:57:51.597Z,0
2018-07-04T00:59:01.640Z,0
2018-07-04T01:00:11.815Z,0
2018-07-04T01:01:21.967Z,0
2018-07-04T01:02:32.135Z,0
2018-07-04T01:03:42.265Z,0
2018-07-04T01:04:52.531Z,0
2018-07-04T01:06:02.676Z,0
2018-07-04T01:07:13.919Z,0
2018-07-04T01:08:24.189Z,0
2018-07-04T01:09:34.387Z,0
2018-07-04T01:10:43.996Z,0
2018-07-04T01:11:54.175Z,0
2018-07-04T01:13:04.390Z,0
2018-07-04T01:14:14.517Z,0
2018-07-04T01:15:24.399Z,0
2018-07-04T01:16:34.658Z,0
2018-07-04T01:17:44.860Z,0
2018-07-04T01:18:54.748Z,0
2018-07-04T01:20:04.508Z,0
2018-07-04T01:21:14.667Z,0
2018-07-04T01:22:24.549Z,0
2018-07-04T01:23:35.212Z,0
2018-07-04T01:24:45.359Z,0
2018-07-04T01:25:55.323Z,0
2018-07-04T01:27:05.447Z,0
2018-07-04T01:28:15.312Z,0
2018-07-04T01:29:25.442Z,0
2018-07-04T01:30:35.640Z,0
2018-07-04T01:31:46.756Z,0
2018-07-04T01:32:56.892Z,0
2018-07-04T01:34:07.027Z,0
2018-07-04T01:35:17.202Z,0
2018-07-04T01:36:27.248Z,0
2018-07-04T01:37:37.398Z,0
2018-07-04T01:38:47.181Z,0
2018-07-04T01:39:57.326Z,0
2018-07-04T01:41:07.465Z,0
2018-07-04T01:42:17.681Z,0
2018-07-04T01:43:27.914Z,0
2018-07-04T01:44:38.144Z,0
2018-07-04T01:45:48.280Z,0
2018-07-04T01:46:58.401Z,0
2018-07-04T01:48:08.300Z,0
2018-07-04T01:49:18.174Z,0
2018-07-04T01:50:28.310Z,0
2018-07-04T01:51:38.630Z,0
2018-07-04T01:52:48.714Z,0
2018-07-04T01:53:58.847Z,0
2018-07-04T01:55:09.044Z,0
2018-07-04T01:56:19.371Z,0
2018-07-04T01:57:29.237Z,0
2018-07-04T01:58:38.749Z,0
2018-07-04T01:59:48.892Z,0
2018-07-04T02:00:59.100Z,0
2018-07-04T02:02:09.311Z,0
2018-07-04T02:03:19.425Z,0
2018-07-04T02:04:29.557Z,0
2018-07-04T02:05:39.765Z,0
2018-07-04T02:06:49.933Z,0
2018-07-04T02:08:00.218Z,0
2018-07-04T02:09:10.478Z,0
2018-07-04T02:10:20.620Z,0
2018-07-04T02:11:30.773Z,0
2018-07-04T02:12:40.997Z,0
2018-07-04T02:13:51.137Z,0
2018-07-04T02:15:01.384Z,0
2018-07-04T02:16:11.559Z,0
2018-07-04T02:19:46.711Z,0
2018-07-04T02:20:56.311Z,0
2018-07-04T02:22:05.934Z,0
2018-07-04T02:23:16.070Z,0
2018-07-04T02:24:26.197Z,0
2018-07-04T02:25:36.390Z,0
2018-07-04T02:26:46.541Z,0
2018-07-04T02:27:56.751Z,0
2018-07-04T02:29:06.917Z,0
2018-07-04T02:30:17.204Z,0
2018-07-04T02:31:27.616Z,0
2018-07-04T02:32:37.372Z,0
2018-07-04T02:33:47.518Z,0
2018-07-04T02:34:58.675Z,0
2018-07-04T02:36:08.907Z,0
2018-07-04T02:37:18.795Z,0
2018-07-04T02:38:28.665Z,0
2018-07-04T02:39:38.794Z,0
2018-07-04T02:40:48.723Z,0
2018-07-04T02:41:58.590Z,0
2018-07-04T02:43:08.775Z,0
2018-07-04T02:44:18.919Z,0
2018-07-04T02:45:28.855Z,0
2018-07-04T02:46:38.752Z,0
2018-07-04T02:47:48.959Z,0
2018-07-04T02:48:59.231Z,0
2018-07-04T02:50:09.215Z,0
2018-07-04T02:51:19.615Z,0
2018-07-04T02:52:29.940Z,0
2018-07-04T02:53:40.073Z,0
2018-07-04T02:54:50.210Z,5
2018-07-04T02:56:00.371Z,5
2018-07-04T02:57:10.521Z,5
2018-07-04T02:58:20.055Z,5
2018-07-04T02:59:30.171Z,5
2018-07-04T03:00:40.300Z,5
2018-07-04T03:01:50.468Z,5
2018-07-04T03:03:00.336Z,5
2018-07-04T03:04:10.688Z,5
2018-07-04T03:05:20.860Z,10
2018-07-04T03:06:31.082Z,10
2018-07-04T03:07:41.201Z,10
2018-07-04T03:08:51.553Z,10
2018-07-04T03:10:01.726Z,10
2018-07-04T03:11:11.546Z,10
2018-07-04T03:12:20.949Z,10
2018-07-04T03:13:31.103Z,15
2018-07-04T03:14:41.259Z,15
2018-07-04T03:15:51.493Z,15
2018-07-04T03:17:01.742Z,15
2018-07-04T03:18:11.899Z,15
2018-07-04T03:19:22.283Z,15
2018-07-04T03:20:32.450Z,15
2018-07-04T03:21:42.804Z,20
2018-07-04T03:22:54.182Z,20
2018-07-04T03:24:04.303Z,20
2018-07-04T03:25:14.476Z,20
2018-07-04T03:26:24.601Z,20
2018-07-04T03:27:34.946Z,20
2018-07-04T03:28:44.801Z,25
2018-07-04T03:29:54.932Z,25
2018-07-04T03:31:05.049Z,25
2018-07-04T03:32:15.245Z,25
2018-07-04T03:33:25.370Z,25
2018-07-04T03:34:35.259Z,30
2018-07-04T03:35:45.427Z,30
2018-07-04T03:36:55.325Z,30
2018-07-04T03:38:05.220Z,30
2018-07-04T03:39:15.404Z,30
2018-07-04T03:40:25.246Z,30
2018-07-04T03:41:35.164Z,35
2018-07-04T03:42:45.319Z,35
2018-07-04T03:43:55.474Z,35
2018-07-04T03:45:05.628Z,35
2018-07-04T03:46:15.936Z,35
2018-07-04T03:47:25.594Z,40
2018-07-04T03:48:35.768Z,40
2018-07-04T03:49:45.961Z,40
2018-07-04T03:50:56.202Z,40
2018-07-04T03:52:06.399Z,40
2018-07-04T03:53:17.139Z,40
2018-07-04T03:54:27.330Z,45
2018-07-04T03:55:37.507Z,45
2018-07-04T03:56:47.650Z,45
2018-07-04T03:57:57.800Z,45
2018-07-04T03:59:07.910Z,45
2018-07-04T04:00:18.038Z,50
2018-07-04T04:01:28.272Z,50
2018-07-04T04:02:38.606Z,50
2018-07-04T04:03:49.075Z,50
2018-07-04T04:04:59.214Z,50
2018-07-04T04:06:09.095Z,55
2018-07-04T04:07:19.438Z,55
2018-07-04T04:08:29.570Z,55
2018-07-04T04:09:39.795Z,55
2018-07-04T04:10:49.948Z,55
2018-07-04T04:12:00.087Z,60
2018-07-04T04:13:10.197Z,60
2018-07-04T04:14:20.330Z,60
2018-07-04T04:15:31.473Z,60
2018-07-04T04:16:41.625Z,60
2018-07-04T04:17:51.816Z,65
2018-07-04T04:19:02.184Z,65
2018-07-04T04:20:12.332Z,65
2018-07-04T04:21:22.566Z,65
2018-07-04T04:22:32.795Z,65
2018-07-04T04:23:42.943Z,70
2018-07-04T04:24:53.161Z,70
2018-07-04T04:26:03.481Z,70
2018-07-04T04:27:13.864Z,70
2018-07-04T04:28:24.033Z,70
2018-07-04T04:29:34.160Z,70
2018-07-04T04:30:44.366Z,70
2018-07-04T04:31:54.575Z,70
2018-07-04T04:33:04.718Z,70
2018-07-04T04:34:14.976Z,70
2018-07-04T04:35:25.169Z,75
2018-07-04T04:36:35.556Z,75
2018-07-04T04:37:45.683Z,75
2018-07-04T04:38:55.561Z,75
2018-07-04T04:40:05.258Z,80
2018-07-04T04:41:15.380Z,80
2018-07-04T04:42:25.307Z,80
2018-07-04T04:43:35.486Z,80
2018-07-04T04:44:45.611Z,80
2018-07-04T04:45:56.462Z,85
2018-07-04T04:47:06.860Z,85
2018-07-04T04:48:17.002Z,85
2018-07-04T04:49:27.169Z,85
2018-07-04T04:50:37.296Z,85
2018-07-04T04:51:47.437Z,90
2018-07-04T04:52:57.562Z,95
2018-07-04T04:54:07.701Z,90
2018-07-04T04:55:17.988Z,90
2018-07-04T04:56:28.244Z,95
2018-07-04T04:57:38.549Z,100
2018-07-04T04:58:48.767Z,100
2018-07-04T04:59:58.896Z,100
2018-07-04T05:01:09.100Z,95
2018-07-04T05:02:19.074Z,95
2018-07-04T05:03:29.219Z,95
2018-07-04T05:04:39.286Z,100
2018-07-04T05:05:49.500Z,100
2018-07-04T05:06:59.661Z,100
2018-07-04T05:08:10.017Z,100
2018-07-04T05:09:20.191Z,100
2018-07-04T05:10:30.529Z,100
2018-07-04T05:11:40.662Z,100
2018-07-04T05:12:50.534Z,100
2018-07-04T05:14:00.410Z,100
2018-07-04T05:15:10.536Z,105
2018-07-04T05:16:20.653Z,105
2018-07-04T05:17:30.793Z,105
2018-07-04T05:18:40.943Z,105
2018-07-04T05:19:51.803Z,105
2018-07-04T05:21:02.036Z,105
2018-07-04T05:22:11.928Z,105
2018-07-04T05:23:22.051Z,110
2018-07-04T05:24:32.211Z,110
2018-07-04T05:25:42.368Z,110
2018-07-04T05:26:52.244Z,110
2018-07-04T05:28:02.372Z,110
2018-07-04T05:29:12.582Z,115
2018-07-04T05:30:22.785Z,115
2018-07-04T05:31:32.662Z,115
2018-07-04T05:32:42.532Z,115
2018-07-04T05:33:52.685Z,115
2018-07-04T05:35:02.810Z,115
2018-07-04T05:36:13.019Z,120
2018-07-04T05:37:23.262Z,120
2018-07-04T05:38:33.559Z,120
2018-07-04T05:39:43.679Z,120
2018-07-04T05:40:53.475Z,120
2018-07-04T05:42:04.333Z,120
2018-07-04T05:43:14.484Z,120
2018-07-04T05:44:24.748Z,120
2018-07-04T05:45:34.630Z,125
2018-07-04T05:46:44.531Z,125
2018-07-04T05:47:54.719Z,120
2018-07-04T05:49:05.862Z,120
2018-07-04T05:50:15.990Z,120
2018-07-04T05:51:27.120Z,120
2018-07-04T05:52:37.020Z,120
2018-07-04T05:53:47.395Z,120
2018-07-04T05:54:57.521Z,125
2018-07-04T05:56:07.717Z,125
2018-07-04T05:57:17.849Z,125
2018-07-04T05:58:28.007Z,125
2018-07-04T05:59:38.235Z,125
2018-07-04T06:00:48.505Z,125
2018-07-04T06:01:58.856Z,125
2018-07-04T06:03:08.976Z,125
2018-07-04T06:04:19.129Z,125
2018-07-04T06:05:29.417Z,125
2018-07-04T06:06:39.607Z,125
2018-07-04T06:07:49.506Z,125
2018-07-04T06:08:59.630Z,125
2018-07-04T06:10:09.574Z,130
2018-07-04T06:11:19.690Z,130
2018-07-04T06:12:29.822Z,130
2018-07-04T06:13:39.966Z,130
2018-07-04T06:14:50.110Z,130
2018-07-04T06:16:00.324Z,130
2018-07-04T06:17:10.708Z,130
2018-07-04T06:18:20.935Z,130
2018-07-04T06:19:31.097Z,130
2018-07-04T06:20:41.362Z,130
2018-07-04T06:21:51.614Z,130
2018-07-04T06:23:02.090Z,130
2018-07-04T06:24:12.279Z,130
2018-07-04T06:25:22.430Z,130
2018-07-04T06:26:32.599Z,130
2018-07-04T06:27:42.754Z,130
2018-07-04T06:28:52.922Z,135
2018-07-04T06:30:03.141Z,135
2018-07-04T06:31:13.283Z,135
2018-07-04T06:32:23.640Z,135
2018-07-04T06:33:33.840Z,135
2018-07-04T06:34:43.995Z,135
2018-07-04T06:35:54.174Z,135
2018-07-04T06:37:04.433Z,135
2018-07-04T06:38:14.602Z,135
2018-07-04T06:39:24.880Z,140
2018-07-04T06:40:34.780Z,140
2018-07-04T06:41:44.941Z,140
2018-07-04T06:42:55.247Z,140
2018-07-04T06:44:05.369Z,140
2018-07-04T06:45:15.272Z,140
2018-07-04T06:46:25.268Z,140
2018-07-04T06:47:35.508Z,140
2018-07-04T06:48:45.689Z,140
2018-07-04T06:49:55.847Z,140
2018-07-04T06:51:06.126Z,140
2018-07-04T06:52:16.284Z,140
2018-07-04T06:53:26.490Z,140
2018-07-04T06:54:37.234Z,145
2018-07-04T06:55:47.494Z,145
2018-07-04T06:56:57.802Z,145
2018-07-04T06:58:07.970Z,145
2018-07-04T06:59:18.104Z,145
2018-07-04T07:00:27.955Z,145
2018-07-04T07:01:38.149Z,145
2018-07-04T07:02:48.282Z,145
2018-07-04T07:03:58.154Z,145
2018-07-04T07:05:08.283Z,145
2018-07-04T07:06:18.403Z,145
2018-07-04T07:07:28.604Z,150
2018-07-04T07:08:38.837Z,145
2018-07-04T07:09:49.144Z,150
2018-07-04T07:11:00.262Z,150
2018-07-04T07:12:10.148Z,150
2018-07-04T07:13:20.292Z,150
2018-07-04T07:14:31.025Z,150
2018-07-04T07:15:41.319Z,150
2018-07-04T07:16:51.496Z,150
2018-07-04T07:18:01.861Z,150
2018-07-04T07:19:11.991Z,150
2018-07-04T07:20:22.112Z,150
2018-07-04T07:21:31.986Z,150
2018-07-04T07:22:42.155Z,150
2018-07-04T07:23:52.324Z,160
2018-07-04T07:25:02.511Z,155
2018-07-04T07:26:12.497Z,155
2018-07-04T07:27:22.621Z,155
2018-07-04T07:28:32.783Z,155
2018-07-04T07:29:42.936Z,155
2018-07-04T07:30:53.088Z,155
2018-07-04T07:32:03.419Z,160
2018-07-04T07:33:13.234Z,160
2018-07-04T07:34:24.305Z,160
2018-07-04T07:35:34.518Z,160
2018-07-04T07:36:44.848Z,160
2018-07-04T07:37:54.746Z,160
2018-07-04T07:39:04.904Z,165
2018-07-04T07:40:15.062Z,165
2018-07-04T07:41:25.212Z,165
2018-07-04T07:42:36.306Z,170
2018-07-04T07:43:46.459Z,170
2018-07-04T07:44:56.738Z,170
2018-07-04T07:46:06.654Z,170
2018-07-04T07:47:16.576Z,170
2018-07-04T07:48:26.749Z,175
2018-07-04T07:49:36.864Z,175
2018-07-04T07:50:47.221Z,175
2018-07-04T07:51:57.344Z,175
2018-07-04T07:53:07.270Z,180
2018-07-04T07:54:17.556Z,180
2018-07-04T07:55:27.994Z,180
2018-07-04T07:56:38.128Z,190
2018-07-04T07:57:49.245Z,185
2018-07-04T07:58:59.433Z,185
2018-07-04T08:00:09.332Z,185
2018-07-04T08:01:19.517Z,190
2018-07-04T08:02:29.664Z,190
2018-07-04T08:03:39.833Z,190
2018-07-04T08:04:50.084Z,195
2018-07-04T08:06:00.582Z,195
2018-07-04T08:07:10.726Z,195
2018-07-04T08:08:20.901Z,195
2018-07-04T08:09:31.107Z,195
2018-07-04T08:10:41.265Z,195
2018-07-04T08:11:51.556Z,195
2018-07-04T08:13:01.905Z,200
2018-07-04T08:14:12.037Z,200
2018-07-04T08:15:21.979Z,200
2018-07-04T08:16:32.250Z,205
2018-07-04T08:17:42.215Z,205
2018-07-04T08:18:52.756Z,205
2018-07-04T08:20:03.055Z,210
2018-07-04T08:21:13.235Z,210
2018-07-04T08:22:23.448Z,210
2018-07-04T08:23:33.354Z,215
2018-07-04T08:24:43.243Z,215
2018-07-04T08:25:53.378Z,215
2018-07-04T08:27:03.543Z,220
2018-07-04T08:28:13.713Z,220
2018-07-04T08:29:23.857Z,220
2018-07-04T08:30:34.003Z,220
2018-07-04T08:31:43.917Z,225
2018-07-04T08:32:54.053Z,225
2018-07-04T08:34:05.171Z,225
2018-07-04T08:35:15.377Z,225
2018-07-04T08:36:25.572Z,225
2018-07-04T08:37:35.812Z,235
2018-07-04T08:38:46.165Z,230
2018-07-04T08:39:56.302Z,230
2018-07-04T08:41:06.456Z,235
2018-07-04T08:42:16.606Z,240
2018-07-04T08:43:26.763Z,245
2018-07-04T08:44:36.977Z,250
2018-07-04T08:45:47.168Z,260
2018-07-04T08:46:57.323Z,355
2018-07-04T08:48:07.497Z,1030
2018-07-04T08:49:17.641Z,1690
2018-07-04T08:50:28.040Z,1725
2018-07-04T08:51:38.197Z,1710
2018-07-04T08:52:48.546Z,1690
2018-07-04T08:53:58.858Z,1700
2018-07-04T08:55:08.944Z,1660
2018-07-04T08:56:19.096Z,1245
2018-07-04T08:57:29.069Z,750
2018-07-04T08:58:39.650Z,435
2018-07-04T08:59:49.839Z,350
2018-07-04T09:01:00.051Z,400
2018-07-04T09:02:11.899Z,535
2018-07-04T09:03:22.118Z,630
2018-07-04T09:04:32.351Z,1435
2018-07-04T09:05:42.558Z,2075
2018-07-04T09:06:52.943Z,2200
2018-07-04T09:08:03.111Z,2190
2018-07-04T09:09:13.310Z,2170
2018-07-04T09:10:23.550Z,2115
2018-07-04T09:11:33.902Z,2000
2018-07-04T09:12:44.024Z,1915
2018-07-04T09:13:54.190Z,1920
2018-07-04T09:15:04.363Z,1950
2018-07-04T09:16:14.543Z,2005
2018-07-04T09:17:25.032Z,2085
2018-07-04T09:18:35.205Z,2230
2018-07-04T09:19:45.349Z,2310
2018-07-04T09:20:55.555Z,2330
2018-07-04T09:22:05.924Z,2285
2018-07-04T09:23:15.301Z,2265
2018-07-04T09:24:25.447Z,2335
2018-07-04T09:25:35.600Z,2415
2018-07-04T09:26:45.754Z,2465
2018-07-04T09:27:55.951Z,2490
2018-07-04T09:29:06.194Z,2495
2018-07-04T09:30:16.347Z,2405
2018-07-04T09:31:26.232Z,2290
2018-07-04T09:32:37.321Z,2275
2018-07-04T09:33:53.320Z,2325
2018-07-04T09:36:22.642Z,2360
2018-07-04T09:37:32.820Z,2375
2018-07-04T09:38:43.079Z,2365
2018-07-04T09:39:54.271Z,2365
2018-07-04T09:41:04.425Z,2415
2018-07-04T09:42:14.590Z,2445
2018-07-04T09:43:27.172Z,2450
2018-07-04T09:44:37.178Z,2445
2018-07-04T09:45:48.315Z,2435
2018-07-04T09:46:58.471Z,2425
2018-07-04T09:48:08.620Z,2425
2018-07-04T09:49:18.910Z,2455
2018-07-04T09:50:29.361Z,2440
2018-07-04T09:51:39.537Z,2455
2018-07-04T09:52:49.704Z,2510
2018-07-04T09:53:59.873Z,2540
2018-07-04T09:55:38.744Z,2550
2018-07-04T09:56:49.502Z,2570
2018-07-04T09:57:59.397Z,2560
2018-07-04T09:59:09.193Z,2565
2018-07-04T10:00:19.114Z,2610
2018-07-04T10:01:29.267Z,2665
2018-07-04T10:02:40.636Z,2670
2018-07-04T10:03:50.802Z,2645
2018-07-04T10:05:01.187Z,2635
2018-07-04T10:06:11.107Z,2650
2018-07-04T10:07:21.366Z,2640
2018-07-04T10:08:31.526Z,2625
2018-07-04T10:09:41.696Z,2620
2018-07-04T10:10:51.842Z,2585
2018-07-04T10:12:02.039Z,2565
2018-07-04T10:13:12.257Z,2530
2018-07-04T10:14:22.487Z,2525
2018-07-04T10:15:32.646Z,2510
2018-07-04T10:16:42.879Z,2470
2018-07-04T10:17:53.046Z,2425
2018-07-04T10:19:03.224Z,2360
2018-07-04T10:20:13.414Z,2330
2018-07-04T10:21:23.682Z,2340
2018-07-04T10:22:33.940Z,2395
2018-07-04T10:23:44.150Z,2500
2018-07-04T10:24:54.312Z,2675
2018-07-04T10:26:04.500Z,2780
2018-07-04T10:27:14.728Z,2865
2018-07-04T10:28:24.911Z,2970
2018-07-04T10:29:34.683Z,3085
2018-07-04T10:30:44.868Z,3190
2018-07-04T10:31:55.109Z,3280
2018-07-04T10:33:05.272Z,3295
2018-07-04T10:34:15.581Z,3275
2018-07-04T10:35:25.812Z,3220
2018-07-04T10:36:36.199Z,3150
2018-07-04T10:37:46.227Z,3145
2018-07-04T10:38:56.488Z,3170
2018-07-04T10:40:06.662Z,3240
2018-07-04T10:41:16.859Z,3265
2018-07-04T10:42:27.103Z,3275
2018-07-04T10:43:38.278Z,3305
2018-07-04T10:44:48.711Z,3300
2018-07-04T10:45:58.937Z,3290
2018-07-04T10:47:09.094Z,3315
2018-07-04T10:48:19.267Z,3280
2018-07-04T10:49:29.523Z,3165
2018-07-04T10:50:39.900Z,3080
2018-07-04T10:51:50.064Z,3070
2018-07-04T10:53:00.240Z,3075
2018-07-04T10:54:10.425Z,3120
2018-07-04T10:55:21.621Z,3175
2018-07-04T10:56:31.803Z,3220
2018-07-04T10:57:42.065Z,3265
2018-07-04T10:58:51.967Z,3285
2018-07-04T11:00:02.060Z,3250
2018-07-04T11:01:12.246Z,3220
2018-07-04T11:02:22.438Z,3215
2018-07-04T11:03:32.770Z,3190
2018-07-04T11:04:43.475Z,3220
2018-07-04T11:05:53.653Z,3255
2018-07-04T11:07:03.889Z,3255
2018-07-04T11:08:14.266Z,3215
2018-07-04T11:09:24.528Z,3250
2018-07-04T11:10:34.478Z,3305
2018-07-04T11:11:44.690Z,3365
2018-07-04T11:12:54.911Z,3425
2018-07-04T11:14:04.853Z,3485
2018-07-04T11:15:14.824Z,3465
2018-07-04T11:16:25.048Z,3400
2018-07-04T11:17:35.277Z,3315
2018-07-04T11:18:45.518Z,3235
2018-07-04T11:19:55.493Z,3180
2018-07-04T11:21:05.678Z,3135
2018-07-04T11:22:15.608Z,3090
2018-07-04T11:23:25.817Z,3100
2018-07-04T11:24:35.728Z,3085
2018-07-04T11:25:46.133Z,3070
2018-07-04T11:26:56.059Z,3035
2018-07-04T11:28:06.221Z,3040
2018-07-04T11:29:16.542Z,3105
2018-07-04T11:30:26.756Z,3200
2018-07-04T11:31:36.972Z,3255
2018-07-04T11:32:47.178Z,3270
2018-07-04T11:33:56.836Z,3255
2018-07-04T11:35:07.021Z,3170
2018-07-04T11:36:17.197Z,3155
2018-07-04T11:37:27.488Z,3180
2018-07-04T11:38:37.884Z,3240
2018-07-04T11:39:48.147Z,3235
2018-07-04T11:40:58.355Z,3220
2018-07-04T11:42:08.579Z,3195
2018-07-04T11:43:18.779Z,3145
2018-07-04T11:44:28.974Z,3100
2018-07-04T11:45:40.147Z,3130
2018-07-04T11:46:50.407Z,3140
2018-07-04T11:48:00.575Z,3085
2018-07-04T11:49:10.816Z,3060
2018-07-04T11:50:20.983Z,3080
2018-07-04T11:51:31.197Z,3100
2018-07-04T11:52:41.410Z,3090
2018-07-04T11:53:51.634Z,3105
2018-07-04T11:55:01.782Z,3120
2018-07-04T11:56:11.973Z,3115
2018-07-04T11:57:22.201Z,3080
2018-07-04T11:58:32.363Z,3070
2018-07-04T11:59:42.537Z,3060
2018-07-04T12:00:52.687Z,3080
2018-07-04T12:02:02.944Z,3150
2018-07-04T12:03:13.120Z,3175
2018-07-04T12:04:22.743Z,3165
2018-07-04T12:05:33.395Z,3140
2018-07-04T12:06:43.651Z,3135
2018-07-04T12:07:53.980Z,3125
2018-07-04T12:09:04.290Z,3115
2018-07-04T12:10:14.444Z,3140
2018-07-04T12:11:24.671Z,3160
2018-07-04T12:12:34.854Z,3110
2018-07-04T12:13:45.148Z,3095
2018-07-04T12:14:56.306Z,3045
2018-07-04T12:16:06.494Z,3035
2018-07-04T12:17:16.666Z,3050
2018-07-04T12:18:26.879Z,3095
2018-07-04T12:19:37.060Z,3090
2018-07-04T12:20:47.268Z,3090
2018-07-04T12:21:57.479Z,3060
2018-07-04T12:23:07.780Z,3040
2018-07-04T12:24:18.006Z,2980
2018-07-04T12:25:27.918Z,2950
2018-07-04T12:26:38.283Z,2925
2018-07-04T12:27:48.511Z,2990
2018-07-04T12:28:58.890Z,2995
2018-07-04T12:30:09.056Z,3005
2018-07-04T12:31:19.236Z,3000
2018-07-04T12:32:29.491Z,2960
2018-07-04T12:33:39.797Z,3030
2018-07-04T12:34:49.980Z,3110
2018-07-04T12:35:59.901Z,3025
2018-07-04T12:37:10.061Z,3010
2018-07-04T12:38:20.363Z,3060
2018-07-04T12:39:30.534Z,2950
2018-07-04T12:40:40.922Z,2825
2018-07-04T12:41:51.123Z,2760
2018-07-04T12:43:01.105Z,2710
2018-07-04T12:44:11.249Z,2695
2018-07-04T12:45:20.710Z,2710
2018-07-04T12:46:30.889Z,2650
2018-07-04T12:47:41.059Z,2645
2018-07-04T12:48:51.218Z,2720
2018-07-04T12:50:01.109Z,2850
2018-07-04T12:51:11.234Z,2835
2018-07-04T12:52:21.674Z,2860
2018-07-04T12:53:31.936Z,2920
2018-07-04T12:54:42.748Z,2885
2018-07-04T12:55:53.002Z,2810
2018-07-04T12:57:03.178Z,2750
2018-07-04T12:58:13.365Z,2755
2018-07-04T12:59:23.801Z,2850
2018-07-04T13:00:35.012Z,2935
2018-07-04T13:01:45.166Z,2925
2018-07-04T13:02:55.455Z,2900
2018-07-04T13:04:05.432Z,2855
2018-07-04T13:05:15.504Z,2795
2018-07-04T13:06:25.718Z,2785
2018-07-04T13:07:35.927Z,2845
2018-07-04T13:08:46.105Z,2865
2018-07-04T13:09:56.081Z,2835
2018-07-04T13:11:06.359Z,2770
2018-07-04T13:12:16.514Z,2650
2018-07-04T13:13:26.714Z,2685
2018-07-04T13:14:36.920Z,2630
2018-07-04T13:15:47.171Z,2625
2018-07-04T13:16:57.432Z,2650
2018-07-04T13:18:07.403Z,2670
2018-07-04T13:19:17.669Z,2725
2018-07-04T13:20:27.907Z,2770
2018-07-04T13:21:38.059Z,2765
2018-07-04T13:22:48.221Z,2695
2018-07-04T13:23:58.125Z,2660
2018-07-04T13:25:08.309Z,2665
2018-07-04T13:26:18.479Z,2660
2018-07-04T13:27:28.662Z,2700
2018-07-04T13:28:38.826Z,2680
2018-07-04T13:29:49.020Z,2635
2018-07-04T13:30:59.176Z,2580
2018-07-04T13:32:09.720Z,2545
2018-07-04T13:33:20.178Z,2525
2018-07-04T13:34:30.377Z,2495
2018-07-04T13:35:40.637Z,2415
2018-07-04T13:36:50.799Z,2390
2018-07-04T13:38:00.990Z,2390
2018-07-04T13:39:11.160Z,2395
2018-07-04T13:40:21.429Z,2420
2018-07-04T13:41:31.621Z,2495
2018-07-04T13:42:41.897Z,2550
2018-07-04T13:43:52.092Z,2565
2018-07-04T13:45:02.365Z,2495
2018-07-04T13:46:12.560Z,2385
2018-07-04T13:47:22.767Z,2245
2018-07-04T13:48:33.001Z,2205
2018-07-04T13:49:42.915Z,2235
2018-07-04T13:50:52.962Z,2265
2018-07-04T13:52:03.135Z,2255
2018-07-04T13:53:13.311Z,2205
2018-07-04T13:54:23.644Z,2125
2018-07-04T13:55:33.918Z,2025
2018-07-04T13:56:44.095Z,1990
2018-07-04T13:57:54.016Z,2010
2018-07-04T13:59:04.216Z,1855
2018-07-04T14:00:14.898Z,1955
2018-07-04T14:01:25.078Z,1960
2018-07-04T14:02:35.313Z,2070
2018-07-04T14:03:46.300Z,2080
2018-07-04T14:04:57.512Z,2080
2018-07-04T14:06:07.724Z,2075
2018-07-04T14:07:17.946Z,2045
2018-07-04T14:08:28.117Z,2045
2018-07-04T14:09:38.283Z,2040
2018-07-04T14:10:48.452Z,2005
2018-07-04T14:11:58.901Z,1965
2018-07-04T14:13:09.126Z,1925
2018-07-04T14:14:19.294Z,1930
2018-07-04T14:15:29.474Z,1960
2018-07-04T14:16:39.678Z,2010
2018-07-04T14:17:49.855Z,2010
2018-07-04T14:19:00.287Z,2020
2018-07-04T14:20:10.506Z,1965
2018-07-04T14:21:20.464Z,1940
2018-07-04T14:22:30.614Z,1935
2018-07-04T14:23:40.771Z,1960
2018-07-04T14:24:50.949Z,2040
2018-07-04T14:26:01.098Z,2085
2018-07-04T14:27:11.270Z,2110
2018-07-04T14:28:21.104Z,2105
2018-07-04T14:29:31.032Z,2050
2018-07-04T14:30:41.201Z,1970
2018-07-04T14:31:51.119Z,1975
2018-07-04T14:33:01.411Z,2045
2018-07-04T14:34:11.384Z,2100
2018-07-04T14:35:21.553Z,2095
2018-07-04T14:36:31.705Z,2045
2018-07-04T14:37:41.933Z,1995
2018-07-04T14:38:51.941Z,1975
2018-07-04T14:40:02.261Z,1980
2018-07-04T14:41:12.420Z,1920
2018-07-04T14:42:22.675Z,1840
2018-07-04T14:43:32.926Z,1770
2018-07-04T14:44:43.346Z,1750
2018-07-04T14:45:53.325Z,1785
2018-07-04T14:47:03.541Z,1850
2018-07-04T14:48:13.752Z,1895
2018-07-04T14:49:23.726Z,1870
2018-07-04T14:50:33.883Z,1770
2018-07-04T14:51:44.038Z,1655
2018-07-04T14:52:54.355Z,1610
2018-07-04T14:54:04.537Z,1585
2018-07-04T14:55:14.705Z,1590
2018-07-04T14:56:24.961Z,1615
2018-07-04T14:57:35.120Z,1635
2018-07-04T14:58:44.951Z,1635
2018-07-04T14:59:54.856Z,1615
2018-07-04T15:01:05.040Z,1600
2018-07-04T15:02:15.264Z,1630
2018-07-04T15:03:25.423Z,1675
2018-07-04T15:04:36.564Z,1715
2018-07-04T15:05:46.880Z,1710
2018-07-04T15:06:56.456Z,1635
2018-07-04T15:08:06.346Z,1530
2018-07-04T15:09:16.377Z,1045
2018-07-04T15:10:26.676Z,480
2018-07-04T15:11:36.595Z,360
2018-07-04T15:12:46.494Z,330
2018-07-04T15:13:56.415Z,315
2018-07-04T15:15:06.600Z,300
2018-07-04T15:16:16.953Z,285
2018-07-04T15:17:27.134Z,275
2018-07-04T15:18:37.333Z,270
2018-07-04T15:19:47.510Z,270
2018-07-04T15:20:57.670Z,265
2018-07-04T15:22:07.943Z,260
2018-07-04T15:23:17.850Z,255
2018-07-04T15:24:27.988Z,245
2018-07-04T15:25:37.901Z,240
2018-07-04T15:26:47.892Z,245
2018-07-04T15:27:58.062Z,245
2018-07-04T15:29:08.252Z,240
2018-07-04T15:30:18.505Z,240
2018-07-04T15:31:28.682Z,235
2018-07-04T15:32:38.863Z,235
2018-07-04T15:33:49.154Z,240
2018-07-04T15:34:59.353Z,245
2018-07-04T15:36:09.189Z,210
2018-07-04T15:37:19.394Z,215
2018-07-04T15:38:29.574Z,230
2018-07-04T15:39:39.403Z,240
2018-07-04T15:40:49.550Z,220
2018-07-04T15:41:59.704Z,200
2018-07-04T15:43:09.884Z,225
2018-07-04T15:44:20.057Z,230
2018-07-04T15:45:30.401Z,215
2018-07-04T15:46:40.599Z,230
2018-07-04T15:47:50.789Z,210
2018-07-04T15:49:01.006Z,225
2018-07-04T15:50:11.189Z,225
2018-07-04T15:51:21.402Z,230
2018-07-04T15:52:31.670Z,200
2018-07-04T15:53:41.910Z,215
2018-07-04T15:54:52.096Z,225
2018-07-04T15:56:02.364Z,190
2018-07-04T15:57:13.579Z,195
2018-07-04T15:58:23.780Z,185
2018-07-04T15:59:34.500Z,205
2018-07-04T16:00:44.675Z,210
2018-07-04T16:01:54.860Z,215
2018-07-04T16:03:05.162Z,215
2018-07-04T16:04:15.384Z,225
2018-07-04T16:05:25.571Z,230
2018-07-04T16:06:35.746Z,240
2018-07-04T16:07:45.749Z,245
2018-07-04T16:08:56.905Z,245
2018-07-04T16:10:07.086Z,250
2018-07-04T16:11:17.353Z,250
2018-07-04T16:12:27.541Z,245
2018-07-04T16:13:37.694Z,240
2018-07-04T16:14:47.924Z,235